Time;durP1;ratioP1;P1;durP2;ratioP2;P2;SDS_P1;SDS_P2;PMS_P1;PMS_P2;Temp;Humidity;BMP_temperature;BMP_pressure;BME280_temperature;BME280_humidity;BME280_pressure;Samples;Min_cycle;Max_cycle;Signal;HPM_P1;HPM_P2
2023/01/29 00:00:38;;;;;;;;;;;;;;;6.83;55.97;98914.72;4977247;28;19996;-76
2023/01/29 00:03:04;;;;;;;;;;;;;;;6.83;55.98;98917.31;4977528;28;19918;-75
2023/01/29 00:05:29;;;;;;;;;;;;;;;6.82;55.73;98916.47;4977522;28;19918;-76
2023/01/29 00:07:55;;;;;;;;;;;;;;;6.82;55.69;98918.25;4960449;28;20312;-75
2023/01/29 00:10:20;;;;;;;;;;;;;;;6.82;55.96;98913.88;4960708;28;19918;-76
2023/01/29 00:12:45;;;;;;;;;;;;;;;6.82;56.12;98918.25;4994034;28;19918;-75
2023/01/29 00:15:11;;;;;;;;;;;;;;;6.80;55.96;98917.47;5006188;28;19921;-75
2023/01/29 00:17:36;;;;;;;;;;;;;;;6.81;55.85;98917.38;5014700;28;20039;-75
2023/01/29 00:20:02;;;;;;;;;;;;;;;6.81;55.92;98927.78;4997183;28;20320;-76
2023/01/29 00:22:28;;;;;;;;;;;;;;;6.80;56.02;98927.84;4980669;28;19924;-75
2023/01/29 00:24:54;;;;;;;;;;;;;;;6.79;56.05;98929.63;4997124;28;20422;-76
2023/01/29 00:27:19;;;;;;;;;;;;;;;6.79;56.69;98936.59;5014991;28;19921;-75
2023/01/29 00:30:07;;;;;;;;;;;;;;;6.78;56.47;98929.72;5014802;28;19940;-76
2023/01/29 00:32:31;;;;;;;;;;;;;;;6.78;56.21;98942.69;5014234;28;19924;-76
2023/01/29 00:34:56;;;;;;;;;;;;;;;6.77;56.75;98935.81;5014490;28;20439;-76
2023/01/29 00:37:21;;;;;;;;;;;;;;;6.77;56.23;98944.47;5014491;28;19917;-76
2023/01/29 00:39:46;;;;;;;;;;;;;;;6.76;56.95;98936.75;4980597;28;19917;-76
2023/01/29 00:44:56;;;;;;;;;;;;;;;6.76;56.90;98949.72;5000357;28;19944;-74
2023/01/29 00:47:32;;;;;;;;;;;;;;;6.76;57.22;98937.59;4994696;28;20385;-75
2023/01/29 00:49:57;;;;;;;;;;;;;;;6.76;56.74;98939.34;4979327;28;19976;-76
2023/01/29 00:52:22;;;;;;;;;;;;;;;6.75;57.29;98940.28;4960959;28;19918;-75
2023/01/29 00:54:48;;;;;;;;;;;;;;;6.74;56.86;98942.03;4994745;28;19944;-75
2023/01/29 00:57:13;;;;;;;;;;;;;;;6.73;57.54;98947.31;4995020;28;19918;-76
2023/01/29 00:59:38;;;;;;;;;;;;;;;6.73;56.77;98952.50;4994297;28;19929;-76
2023/01/29 01:04:47;;;;;;;;;;;;;;;6.72;57.03;98949.09;4994605;28;20000;-75
2023/01/29 01:07:13;;;;;;;;;;;;;;;6.73;57.06;98947.31;4994389;28;19961;-76
2023/01/29 01:12:22;;;;;;;;;;;;;;;6.69;57.95;98950.06;4994250;28;20005;-73
2023/01/29 01:14:47;;;;;;;;;;;;;;;6.70;57.51;98953.50;4976842;28;20020;-76
2023/01/29 01:17:14;;;;;;;;;;;;;;;6.69;57.16;98949.25;4959995;28;19922;-76
2023/01/29 01:19:39;;;;;;;;;;;;;;;6.68;57.84;98948.41;4994462;28;19926;-76
2023/01/29 01:22:04;;;;;;;;;;;;;;;6.65;57.61;98953.75;4994385;28;19918;-76
2023/01/29 01:24:30;;;;;;;;;;;;;;;6.66;57.27;98952.03;4976585;28;19924;-76
2023/01/29 01:26:55;;;;;;;;;;;;;;;6.65;57.25;98958.94;4993780;28;19917;-77
2023/01/29 01:29:20;;;;;;;;;;;;;;;6.64;57.40;98952.09;4976198;28;20016;-76
2023/01/29 01:31:45;;;;;;;;;;;;;;;6.64;57.94;98953.84;4976363;28;19921;-77
2023/01/29 01:34:11;;;;;;;;;;;;;;;6.63;57.94;98954.78;4993965;28;19964;-76
2023/01/29 01:36:36;;;;;;;;;;;;;;;6.61;57.56;98959.22;4993908;28;19940;-76
2023/01/29 01:39:02;;;;;;;;;;;;;;;6.60;57.79;98955.78;4959857;28;19917;-77
2023/01/29 01:41:27;;;;;;;;;;;;;;;6.60;57.37;98960.16;4960377;28;19976;-76
2023/01/29 01:43:54;;;;;;;;;;;;;;;6.58;57.90;98957.63;4987157;28;20298;-76
2023/01/29 01:46:19;;;;;;;;;;;;;;;6.58;57.97;98949.84;4996052;28;20351;-76
2023/01/29 01:48:45;;;;;;;;;;;;;;;6.58;57.96;98954.19;4995823;28;19917;-76
2023/01/29 01:51:10;;;;;;;;;;;;;;;6.59;58.00;98966.25;4995925;28;19965;-76
2023/01/29 01:53:39;;;;;;;;;;;;;;;6.57;58.10;98961.16;4995645;28;19917;-77
2023/01/29 01:56:08;;;;;;;;;;;;;;;6.56;58.23;98962.06;5012908;28;20373;-77
2023/01/29 01:58:35;;;;;;;;;;;;;;;6.56;58.15;98967.25;4995055;28;19917;-76
2023/01/29 02:01:02;;;;;;;;;;;;;;;6.56;57.61;98963.81;5013468;28;19940;-76
2023/01/29 02:11:46;;;;;;;;;;;;;;;6.55;57.75;98975.09;4998312;28;19925;-76
2023/01/29 02:14:11;;;;;;;;;;;;;;;6.54;58.28;98971.69;5012985;28;19917;-75
2023/01/29 02:16:36;;;;;;;;;;;;;;;6.55;58.35;98972.50;4979422;28;19928;-75
2023/01/29 02:19:03;;;;;;;;;;;;;;;6.56;57.94;98974.19;4995325;28;19947;-74
2023/01/29 02:21:44;;;;;;;;;;;;;;;6.54;58.01;98981.25;4995396;28;20000;-75
2023/01/29 02:24:21;;;;;;;;;;;;;;;6.52;58.52;98969.19;5013134;28;20043;-75
2023/01/29 02:26:46;;;;;;;;;;;;;;;6.52;58.07;98979.56;4995398;28;19917;-74
2023/01/29 02:29:25;;;;;;;;;;;;;;;6.55;58.38;98982.88;4995199;28;20381;-74
2023/01/29 02:31:55;;;;;;;;;;;;;;;6.54;57.94;98982.06;4980570;28;20032;-75
2023/01/29 02:34:26;;;;;;;;;;;;;;;6.55;58.33;98988.94;4995268;28;19918;-74
2023/01/29 02:36:54;;;;;;;;;;;;;;;6.55;58.80;98986.34;4995050;28;20411;-74
2023/01/29 02:39:36;;;;;;;;;;;;;;;6.55;58.40;98988.06;5012809;28;19925;-74
2023/01/29 02:42:10;;;;;;;;;;;;;;;6.54;58.19;98981.25;4996971;28;19925;-74
2023/01/29 02:45:11;;;;;;;;;;;;;;;6.54;58.44;98995.03;4999623;28;19975;-76
2023/01/29 02:47:41;;;;;;;;;;;;;;;6.54;58.64;98994.22;4917937;29;20376;-74
2023/01/29 02:50:06;;;;;;;;;;;;;;;6.52;58.40;98992.53;4902291;29;19926;-74
2023/01/29 02:52:36;;;;;;;;;;;;;;;6.53;58.84;98993.34;4917678;29;19923;-75
2023/01/29 02:55:03;;;;;;;;;;;;;;;6.52;58.48;98994.28;4886173;29;19919;-75
2023/01/29 02:57:32;;;;;;;;;;;;;;;6.51;58.86;98997.78;4886591;29;19923;-74
2023/01/29 02:59:58;;;;;;;;;;;;;;;6.49;58.89;98995.28;4901964;29;19919;-74
2023/01/29 03:02:31;;;;;;;;;;;;;;;6.50;58.60;98996.16;4917724;29;19959;-75
2023/01/29 03:05:00;;;;;;;;;;;;;;;6.49;59.24;98991.88;4901693;29;19920;-74
2023/01/29 03:07:45;;;;;;;;;;;;;;;6.49;58.99;98997.06;4886021;29;19962;-75
2023/01/29 03:10:13;;;;;;;;;;;;;;;6.48;58.87;99000.56;4904307;29;19942;-74
2023/01/29 03:12:38;;;;;;;;;;;;;;;6.46;59.24;98997.22;4901484;29;19959;-74
2023/01/29 03:15:12;;;;;;;;;;;;;;;6.47;58.97;99001.50;4885929;29;19962;-74
2023/01/29 03:17:43;;;;;;;;;;;;;;;6.45;59.22;99004.16;4917578;29;20367;-74
2023/01/29 03:20:12;;;;;;;;;;;;;;;6.43;59.16;98998.22;4917318;29;20407;-75
2023/01/29 03:22:37;;;;;;;;;;;;;;;6.43;59.14;99000.81;4993281;28;19971;-75
2023/01/29 03:33:20;;;;;;;;;;;;;;;6.41;58.98;99009.59;5015751;28;19924;-75
2023/01/29 03:35:50;;;;;;;;;;;;;;;6.39;59.58;99008.84;5015804;28;19917;-75
2023/01/29 03:38:16;;;;;;;;;;;;;;;6.38;59.08;99018.38;4998110;28;19917;-75
2023/01/29 03:41:00;;;;;;;;;;;;;;;6.38;58.96;99017.56;4981729;28;19960;-75
2023/01/29 03:43:31;;;;;;;;;;;;;;;6.36;59.32;99020.22;5015892;28;20000;-75
2023/01/29 03:46:02;;;;;;;;;;;;;;;6.34;58.97;99016.88;4982365;28;19957;-74
2023/01/29 03:48:35;;;;;;;;;;;;;;;6.34;59.55;99019.47;4997830;28;20367;-75
2023/01/29 03:51:12;;;;;;;;;;;;;;;6.34;58.76;99024.63;4997944;28;19926;-75
2023/01/29 03:54:01;;;;;;;;;;;;;;;6.35;59.75;99023.72;5014948;28;19924;-75
2023/01/29 03:56:38;;;;;;;;;;;;;;;6.32;58.89;99027.31;4985196;28;19917;-75
2023/01/29 03:59:10;;;;;;;;;;;;;;;6.32;59.01;99022.13;4997476;28;20375;-75
2023/01/29 04:01:39;;;;;;;;;;;;;;;6.30;59.65;99020.56;4998370;28;19918;-75
2023/01/29 04:04:08;;;;;;;;;;;;;;;6.28;59.62;99028.41;4997224;28;19921;-75
2023/01/29 04:06:34;;;;;;;;;;;;;;;6.28;59.22;99032.78;4981714;28;19918;-75
2023/01/29 04:08:59;;;;;;;;;;;;;;;6.29;59.69;99030.09;4997944;28;19917;-75
2023/01/29 04:11:25;;;;;;;;;;;;;;;6.28;59.78;99031.00;5015049;28;19924;-76
2023/01/29 04:13:50;;;;;;;;;;;;;;;6.28;59.19;99037.97;4997919;28;19940;-75
2023/01/29 04:16:26;;;;;;;;;;;;;;;6.30;59.55;99038.72;4997385;28;19921;-76
2023/01/29 04:18:52;;;;;;;;;;;;;;;6.30;59.67;99041.31;4997203;28;20056;-76
2023/01/29 04:21:17;;;;;;;;;;;;;;;6.29;59.35;99042.22;5014898;28;20419;-76
2023/01/29 04:23:42;;;;;;;;;;;;;;;6.28;59.37;99043.97;4997481;28;19917;-75
2023/01/29 04:26:20;;;;;;;;;;;;;;;6.27;59.43;99047.47;4996821;28;20368;-76
2023/01/29 04:28:58;;;;;;;;;;;;;;;6.28;59.46;99056.94;4981052;28;19917;-76
2023/01/29 04:31:24;;;;;;;;;;;;;;;6.28;59.75;99051.75;5014510;28;20436;-76
2023/01/29 04:33:52;;;;;;;;;;;;;;;6.28;59.98;99051.75;4980649;28;19918;-76
2023/01/29 04:36:17;;;;;;;;;;;;;;;6.28;59.12;99054.34;4997084;28;19917;-76
2023/01/29 04:39:02;;;;;;;;;;;;;;;6.29;59.60;99060.34;4996890;28;19918;-76
2023/01/29 04:41:32;;;;;;;;;;;;;;;6.28;59.18;99058.69;5014740;28;19918;-76
2023/01/29 04:44:01;;;;;;;;;;;;;;;6.28;59.20;99064.72;4980714;28;19925;-76
2023/01/29 04:46:27;;;;;;;;;;;;;;;6.28;59.01;99063.88;5014411;28;19917;-77
2023/01/29 04:49:00;;;;;;;;;;;;;;;6.28;59.03;99059.53;4996819;28;19925;-75
2023/01/29 04:51:34;;;;;;;;;;;;;;;6.30;59.20;99059.44;4996614;28;19929;-77
2023/01/29 04:54:17;;;;;;;;;;;;;;;6.29;59.44;99066.41;4980501;28;19921;-77
2023/01/29 04:56:56;;;;;;;;;;;;;;;6.29;59.17;99070.72;4980874;28;20027;-78
2023/01/29 04:59:27;;;;;;;;;;;;;;;6.27;59.05;99073.41;5014107;28;19917;-77
2023/01/29 05:01:52;;;;;;;;;;;;;;;6.24;59.45;99068.38;4996786;28;20309;-78
2023/01/29 05:04:18;;;;;;;;;;;;;;;6.25;59.27;99074.44;4996170;28;19921;-77
2023/01/29 05:06:43;;;;;;;;;;;;;;;6.24;59.52;99081.34;4996532;28;19918;-76
2023/01/29 05:09:09;;;;;;;;;;;;;;;6.22;59.23;99085.78;4996506;28;19995;-77
2023/01/29 05:11:34;;;;;;;;;;;;;;;6.23;58.84;99089.19;4979811;28;20104;-79
2023/01/29 05:14:00;;;;;;;;;;;;;;;6.23;59.14;99091.78;5013906;28;19976;-77
2023/01/29 05:16:26;;;;;;;;;;;;;;;6.21;58.99;99096.22;4996227;28;19984;-76
2023/01/29 05:18:52;;;;;;;;;;;;;;;6.21;59.30;99104.84;4995957;28;19945;-77
2023/01/29 05:21:17;;;;;;;;;;;;;;;6.21;59.11;99102.25;4996328;28;19925;-77
2023/01/29 05:23:51;;;;;;;;;;;;;;;6.20;59.49;99102.31;4996551;28;20008;-77
2023/01/29 05:29:01;;;;;;;;;;;;;;;6.20;59.42;99110.97;4998939;28;19924;-77
2023/01/29 05:31:26;;;;;;;;;;;;;;;6.20;59.49;99105.78;4996411;28;19917;-77
2023/01/29 05:33:51;;;;;;;;;;;;;;;6.19;59.56;99108.44;5013414;28;20026;-77
2023/01/29 05:36:17;;;;;;;;;;;;;;;6.18;59.14;99115.34;5013433;28;20000;-76
2023/01/29 05:38:42;;;;;;;;;;;;;;;6.20;59.79;99110.09;5013326;28;19917;-76
2023/01/29 05:41:07;;;;;;;;;;;;;;;6.20;59.34;99107.50;4996426;28;19918;-77
2023/01/29 05:43:33;;;;;;;;;;;;;;;6.18;59.47;99112.78;5013568;28;19975;-77
2023/01/29 05:45:58;;;;;;;;;;;;;;;6.19;59.60;99116.22;4996196;28;19953;-77
2023/01/29 05:48:24;;;;;;;;;;;;;;;6.18;58.63;99119.72;4995864;28;19987;-78
2023/01/29 05:50:49;;;;;;;;;;;;;;;6.18;59.29;99125.72;4995628;28;19956;-78
2023/01/29 05:53:15;;;;;;;;;;;;;;;6.17;59.42;99131.84;4996010;28;20305;-76
2023/01/29 05:55:44;;;;;;;;;;;;;;;6.17;59.83;99129.25;5013212;28;19918;-77
2023/01/29 05:58:09;;;;;;;;;;;;;;;6.16;59.55;99130.16;4995731;28;20423;-77
2023/01/29 06:00:34;;;;;;;;;;;;;;;6.18;59.49;99138.69;4995900;28;19922;-77
2023/01/29 06:03:00;;;;;;;;;;;;;;;6.18;59.67;99146.47;4995482;28;19970;-77
2023/01/29 06:05:25;;;;;;;;;;;;;;;6.16;59.49;99146.56;4995618;28;19918;-76
2023/01/29 06:07:50;;;;;;;;;;;;;;;6.18;59.51;99150.81;4995637;28;19924;-77
2023/01/29 06:10:16;;;;;;;;;;;;;;;6.15;59.60;99152.66;4995450;28;19924;-77
2023/01/29 06:12:41;;;;;;;;;;;;;;;6.14;59.65;99150.97;4995515;28;19980;-75
2023/01/29 06:15:07;;;;;;;;;;;;;;;6.14;59.48;99153.56;5013217;28;19922;-77
2023/01/29 06:17:32;;;;;;;;;;;;;;;6.14;59.77;99165.72;4979139;28;19932;-77
2023/01/29 06:19:57;;;;;;;;;;;;;;;6.13;59.57;99154.47;5013177;28;19953;-75
2023/01/29 06:22:23;;;;;;;;;;;;;;;6.15;59.74;99169.97;4979360;28;19921;-76
2023/01/29 06:24:48;;;;;;;;;;;;;;;6.14;58.92;99170.88;5012930;28;19922;-77
2023/01/29 06:27:13;;;;;;;;;;;;;;;6.13;59.45;99175.22;4978904;28;19924;-77
2023/01/29 06:29:39;;;;;;;;;;;;;;;6.13;59.68;99176.97;4979298;28;20440;-75
2023/01/29 06:32:04;;;;;;;;;;;;;;;6.13;59.50;99176.97;4978679;28;19917;-76
2023/01/29 06:34:29;;;;;;;;;;;;;;;6.13;59.55;99188.19;5013050;28;20434;-77
2023/01/29 06:36:54;;;;;;;;;;;;;;;6.12;59.99;99190.84;4995349;28;19918;-78
2023/01/29 06:39:20;;;;;;;;;;;;;;;6.12;59.49;99191.72;4995312;28;19969;-77
2023/01/29 06:41:45;;;;;;;;;;;;;;;6.08;59.32;99197.94;4978359;28;19924;-78
2023/01/29 06:44:10;;;;;;;;;;;;;;;6.03;59.71;99199.13;4995799;28;20296;-77
2023/01/29 06:46:36;;;;;;;;;;;;;;;5.97;59.25;99195.06;4995298;28;19971;-76
2023/01/29 06:49:01;;;;;;;;;;;;;;;5.93;59.51;99212.50;4978513;28;19917;-77
2023/01/29 06:51:26;;;;;;;;;;;;;;;5.87;58.52;99209.38;4994597;28;19918;-76
2023/01/29 06:53:53;;;;;;;;;;;;;;;5.78;58.94;99215.84;4994958;28;20017;-77
2023/01/29 06:56:18;;;;;;;;;;;;;;;5.72;58.90;99211.78;4995302;28;20024;-78
2023/01/29 06:58:44;;;;;;;;;;;;;;;5.68;59.06;99210.25;4994871;28;20000;-76
2023/01/29 07:01:10;;;;;;;;;;;;;;;5.65;58.70;99220.78;5012581;28;19918;-76
2023/01/29 07:03:35;;;;;;;;;;;;;;;5.61;58.79;99225.28;4978824;28;20361;-77
2023/01/29 07:06:01;;;;;;;;;;;;;;;5.59;58.57;99226.25;4995109;28;20008;-77
2023/01/29 07:08:27;;;;;;;;;;;;;;;5.54;58.65;99221.28;4995257;28;20304;-76
2023/01/29 07:10:52;;;;;;;;;;;;;;;5.53;58.83;99227.38;4995353;28;19917;-79
2023/01/29 07:13:17;;;;;;;;;;;;;;;5.52;58.61;99224.84;4995126;28;20343;-76
2023/01/29 07:15:43;;;;;;;;;;;;;;;5.53;59.53;99226.53;5012306;28;20428;-76
2023/01/29 07:18:12;;;;;;;;;;;;;;;5.53;59.52;99229.13;5012547;28;19936;-76
2023/01/29 07:20:37;;;;;;;;;;;;;;;5.55;59.04;99227.28;4978976;28;19980;-76
2023/01/29 07:23:03;;;;;;;;;;;;;;;5.54;59.00;99233.41;4995288;28;20017;-76
2023/01/29 07:25:29;;;;;;;;;;;;;;;5.54;59.40;99229.06;4994523;28;19921;-75
2023/01/29 07:27:54;;;;;;;;;;;;;;;5.55;58.53;99230.75;4996649;28;20020;-76
2023/01/29 07:30:20;;;;;;;;;;;;;;;5.57;58.48;99228.91;5015715;28;19957;-76
2023/01/29 07:32:45;;;;;;;;;;;;;;;5.59;58.61;99231.44;5015865;28;19917;-75
2023/01/29 07:35:10;;;;;;;;;;;;;;;5.60;58.18;99227.94;4981525;28;19917;-75
2023/01/29 07:37:36;;;;;;;;;;;;;;;5.62;58.82;99233.88;4983267;28;19945;-76
2023/01/29 07:40:01;;;;;;;;;;;;;;;5.77;66.96;99234.88;5005999;28;20424;-77
2023/01/29 07:42:27;;;;;;;;;;;;;;;6.06;68.53;99235.25;5003721;28;19926;-77
2023/01/29 07:44:52;;;;;;;;;;;;;;;6.23;65.20;99237.84;4989289;28;19922;-76
2023/01/29 07:47:18;;;;;;;;;;;;;;;6.27;64.26;99241.09;4987421;28;19929;-74
2023/01/29 07:49:43;;;;;;;;;;;;;;;6.29;64.85;99240.13;5001187;28;19924;-77
2023/01/29 07:52:08;;;;;;;;;;;;;;;6.36;64.77;99251.00;4965337;28;20340;-75
2023/01/29 07:54:34;;;;;;;;;;;;;;;6.50;64.29;99242.53;4978964;28;20380;-76
2023/01/29 07:56:59;;;;;;;;;;;;;;;6.65;63.54;99241.72;4993203;28;20008;-75
2023/01/29 07:59:24;;;;;;;;;;;;;;;6.98;70.36;99247.81;4996601;28;19917;-75
2023/01/29 08:01:50;;;;;;;;;;;;;;;7.25;65.94;99245.50;4961662;28;20388;-75
2023/01/29 08:04:15;;;;;;;;;;;;;;;7.46;62.82;99247.84;4961670;28;19922;-75
2023/01/29 08:06:40;;;;;;;;;;;;;;;7.60;61.82;99250.50;4995750;28;19976;-73
2023/01/29 08:09:07;;;;;;;;;;;;;;;7.92;64.31;99255.63;4961940;28;19925;-74
2023/01/29 08:11:32;;;;;;;;;;;;;;;8.06;61.10;99250.47;4962424;28;20285;-72
2023/01/29 08:13:57;;;;;;;;;;;;;;;8.33;63.14;99255.88;4978118;28;19933;-74
2023/01/29 08:16:23;;;;;;;;;;;;;;;8.54;63.45;99257.28;4995281;28;19921;-79
2023/01/29 08:18:48;;;;;;;;;;;;;;;8.75;66.57;99257.78;4977830;28;20021;-76
2023/01/29 08:21:13;;;;;;;;;;;;;;;8.94;69.23;99260.13;4977919;28;19976;-74
2023/01/29 08:23:39;;;;;;;;;;;;;;;9.17;72.62;99259.53;4977730;28;19973;-76
2023/01/29 08:26:04;;;;;;;;;;;;;;;9.35;74.88;99261.94;4995243;28;19917;-75
2023/01/29 08:28:29;;;;;;;;;;;;;;;9.83;82.35;99262.31;4978137;28;20016;-73
2023/01/29 08:30:55;;;;;;;;;;;;;;;9.69;74.44;99268.41;4993604;28;19979;-78
2023/01/29 08:33:20;;;;;;;;;;;;;;;9.90;79.75;99266.22;4976891;28;20016;-75
2023/01/29 08:35:49;;;;;;;;;;;;;;;9.77;71.87;99271.38;4976339;28;20393;-76
2023/01/29 08:38:14;;;;;;;;;;;;;;;9.67;66.56;99274.69;4958524;28;19940;-72
2023/01/29 08:40:40;;;;;;;;;;;;;;;9.68;68.44;99266.75;4974848;28;20374;-74
2023/01/29 08:43:05;;;;;;;;;;;;;;;9.68;66.33;99268.53;4975735;28;19917;-75
2023/01/29 08:45:34;;;;;;;;;;;;;;;9.65;63.94;99273.94;4958856;28;19972;-76
2023/01/29 08:48:00;;;;;;;;;;;;;;;9.57;63.05;99277.88;4975088;28;19938;-77
2023/01/29 08:50:25;;;;;;;;;;;;;;;9.51;64.18;99280.84;4975677;28;19918;-79
2023/01/29 08:52:50;;;;;;;;;;;;;;;9.40;61.49;99276.31;4959426;28;20392;-76
2023/01/29 08:55:16;;;;;;;;;;;;;;;9.26;60.70;99283.34;4992353;28;19918;-75
2023/01/29 08:57:41;;;;;;;;;;;;;;;9.15;60.48;99278.78;5009570;28;19922;-78
2023/01/29 09:00:07;;;;;;;;;;;;;;;9.06;60.54;99280.16;4978773;28;19931;-79
2023/01/29 09:02:32;;;;;;;;;;;;;;;8.94;59.11;99273.97;4978804;28;20364;-77
2023/01/29 09:04:58;;;;;;;;;;;;;;;8.83;58.73;99274.59;4978837;28;19920;-76
2023/01/29 09:07:23;;;;;;;;;;;;;;;8.73;58.62;99275.25;5012408;28;19921;-77
2023/01/29 09:09:48;;;;;;;;;;;;;;;8.62;58.29;99276.75;5012411;28;19921;-76
2023/01/29 09:12:14;;;;;;;;;;;;;;;8.51;58.39;99272.16;4978087;28;19917;-76
2023/01/29 09:14:39;;;;;;;;;;;;;;;8.42;58.63;99277.06;4994796;28;19920;-74
2023/01/29 09:17:04;;;;;;;;;;;;;;;8.28;58.47;99277.84;4978078;28;19979;-76
2023/01/29 09:19:29;;;;;;;;;;;;;;;8.13;57.98;99275.22;4978296;28;19922;-75
2023/01/29 09:21:55;;;;;;;;;;;;;;;8.01;57.06;99282.88;4978099;28;19929;-75
2023/01/29 09:24:20;;;;;;;;;;;;;;;7.89;57.16;99277.47;5004855;28;19921;-75
2023/01/29 09:26:45;;;;;;;;;;;;;;;7.77;56.80;99285.94;5007420;28;20305;-75
2023/01/29 09:29:11;;;;;;;;;;;;;;;7.66;57.11;99272.72;4994299;28;19919;-75
2023/01/29 09:31:36;;;;;;;;;;;;;;;7.59;56.66;99280.84;4985679;28;19926;-77
2023/01/29 09:34:01;;;;;;;;;;;;;;;7.55;56.61;99275.91;5007508;28;19925;-76
2023/01/29 09:36:27;;;;;;;;;;;;;;;7.49;56.05;99273.63;5007331;28;19918;-74
2023/01/29 09:38:52;;;;;;;;;;;;;;;7.42;56.01;99271.38;5007028;28;19929;-75
2023/01/29 09:41:23;;;;;;;;;;;;;;;7.38;56.12;99266.44;4974653;28;20351;-79
2023/01/29 09:43:53;;;;;;;;;;;;;;;7.35;55.94;99264.00;4992315;28;19997;-76
2023/01/29 09:46:22;;;;;;;;;;;;;;;7.30;58.23;99261.66;4990713;28;19928;-75
2023/01/29 09:48:47;;;;;;;;;;;;;;;7.50;68.07;99268.38;4991889;28;20343;-76
2023/01/29 09:51:26;;;;;;;;;;;;;;;7.55;64.77;99260.31;5006874;28;19918;-73
2023/01/29 09:54:04;;;;;;;;;;;;;;;7.87;71.47;99263.69;4990682;28;19914;-78
2023/01/29 09:56:29;;;;;;;;;;;;;;;7.87;67.13;99257.66;4998645;28;19932;-77
2023/01/29 09:58:57;;;;;;;;;;;;;;;7.86;64.63;99249.03;4993515;28;19918;-78
2023/01/29 10:01:26;;;;;;;;;;;;;;;7.84;63.39;99245.66;4994586;28;20032;-77
2023/01/29 10:04:14;;;;;;;;;;;;;;;7.83;62.31;99248.34;4993543;28;19921;-76
2023/01/29 10:06:40;;;;;;;;;;;;;;;7.82;61.94;99239.72;4896992;29;19919;-77
2023/01/29 10:09:05;;;;;;;;;;;;;;;7.81;61.58;99245.00;4896696;29;19915;-78
2023/01/29 10:11:33;;;;;;;;;;;;;;;7.78;60.96;99248.66;4896572;29;20005;-77
2023/01/29 10:14:04;;;;;;;;;;;;;;;7.79;64.24;99248.53;4896841;29;19971;-77
2023/01/29 10:16:29;;;;;;;;;;;;;;;8.69;76.15;99233.78;4896845;29;19939;-79
2023/01/29 10:18:56;;;;;;;;;;;;;;;9.24;74.22;99237.38;4912226;29;20007;-76
2023/01/29 10:21:21;;;;;;;;;;;;;;;9.54;73.08;99241.56;4912650;29;19919;-77
2023/01/29 10:23:49;;;;;;;;;;;;;;;9.40;67.19;99231.19;4912384;29;19982;-77
2023/01/29 10:26:14;;;;;;;;;;;;;;;9.22;64.77;99228.00;4891632;29;19994;-77
2023/01/29 10:28:45;;;;;;;;;;;;;;;9.04;63.40;99224.75;4893387;29;20441;-77
2023/01/29 10:31:15;;;;;;;;;;;;;;;8.85;63.09;99218.06;4877796;29;19919;-77
2023/01/29 10:33:41;;;;;;;;;;;;;;;8.74;63.26;99214.47;4893392;29;19930;-79
2023/01/29 10:36:08;;;;;;;;;;;;;;;8.62;62.40;99218.66;4877823;29;19958;-76
2023/01/29 10:38:33;;;;;;;;;;;;;;;8.51;62.09;99208.91;4893054;29;19986;-79
2023/01/29 10:41:07;;;;;;;;;;;;;;;8.41;61.84;99212.94;4893556;29;19927;-79
2023/01/29 10:43:38;;;;;;;;;;;;;;;8.30;61.87;99206.63;4931932;28;19921;-80
2023/01/29 10:46:10;;;;;;;;;;;;;;;8.21;61.60;99198.53;4974146;28;19917;-78
2023/01/29 10:48:39;;;;;;;;;;;;;;;8.13;61.80;99199.81;4974794;28;20992;-81
2023/01/29 10:51:13;;;;;;;;;;;;;;;8.09;61.34;99203.50;4957367;28;19914;-79
2023/01/29 10:53:47;;;;;;;;;;;;;;;8.03;61.43;99197.81;4958325;28;19918;-78
2023/01/29 10:56:25;;;;;;;;;;;;;;;7.96;61.34;99197.34;4975793;28;20010;-83
2023/01/29 10:58:51;;;;;;;;;;;;;;;8.14;70.47;99196.28;4991620;28;19983;-77
2023/01/29 11:01:16;;;;;;;;;;;;;;;8.25;68.81;99190.44;4973298;28;19918;-77
2023/01/29 11:03:42;;;;;;;;;;;;;;;8.20;66.22;99189.88;4993300;28;20400;-77
2023/01/29 11:06:22;;;;;;;;;;;;;;;8.12;64.37;99179.09;4977225;28;19921;-74
2023/01/29 11:08:48;;;;;;;;;;;;;;;8.08;63.81;99182.78;4976817;28;19960;-77
2023/01/29 11:11:14;;;;;;;;;;;;;;;8.03;62.69;99183.06;4994956;28;19918;-76
2023/01/29 11:13:44;;;;;;;;;;;;;;;8.01;62.74;99187.53;4993927;28;19922;-79
2023/01/29 11:16:10;;;;;;;;;;;;;;;7.92;62.38;99185.44;4994299;28;19969;-78
2023/01/29 11:18:52;;;;;;;;;;;;;;;7.88;61.51;99179.59;4993662;28;20387;-78
2023/01/29 11:21:17;;;;;;;;;;;;;;;7.82;61.21;99174.75;4993916;28;20400;-77
2023/01/29 11:23:43;;;;;;;;;;;;;;;7.78;61.23;99179.31;4994348;28;19918;-78
2023/01/29 11:26:10;;;;;;;;;;;;;;;7.71;61.17;99177.13;4996728;28;19922;-77
2023/01/29 11:28:38;;;;;;;;;;;;;;;7.67;60.49;99171.28;4996767;28;20699;-77
2023/01/29 11:31:13;;;;;;;;;;;;;;;7.61;60.03;99169.88;4991964;28;19980;-78
2023/01/29 11:33:39;;;;;;;;;;;;;;;7.59;60.21;99168.28;4977122;28;20343;-77
2023/01/29 11:36:17;;;;;;;;;;;;;;;7.56;60.24;99165.88;5009407;28;19918;-78
2023/01/29 11:38:42;;;;;;;;;;;;;;;7.53;60.19;99166.06;4992766;28;19921;-78
2023/01/29 11:41:13;;;;;;;;;;;;;;;7.49;60.02;99165.38;5009504;28;19925;-77
2023/01/29 11:43:39;;;;;;;;;;;;;;;7.46;59.99;99164.72;5009732;28;19934;-77
2023/01/29 11:46:05;;;;;;;;;;;;;;;7.41;60.39;99158.00;4992712;28;19972;-78
2023/01/29 11:48:34;;;;;;;;;;;;;;;7.39;60.43;99157.25;4993210;28;19925;-78
2023/01/29 11:50:59;;;;;;;;;;;;;;;7.36;59.59;99152.25;4976805;28;20389;-76
2023/01/29 11:53:37;;;;;;;;;;;;;;;7.31;59.68;99154.25;4993929;28;19918;-78
2023/01/29 11:56:03;;;;;;;;;;;;;;;7.33;60.31;99157.59;4997120;28;20324;-79
2023/01/29 11:58:28;;;;;;;;;;;;;;;7.31;60.00;99158.63;4979546;28;19997;-78
2023/01/29 12:00:54;;;;;;;;;;;;;;;7.30;60.29;99155.19;4979818;28;19945;-77
2023/01/29 12:03:38;;;;;;;;;;;;;;;7.29;59.92;99150.06;4996424;28;20008;-78
2023/01/29 12:06:20;;;;;;;;;;;;;;;7.29;59.78;99143.13;4995841;28;19918;-77
2023/01/29 12:08:51;;;;;;;;;;;;;;;7.29;60.02;99145.72;4996074;28;20408;-78
2023/01/29 12:11:27;;;;;;;;;;;;;;;7.27;60.21;99134.56;4979935;28;19919;-77
2023/01/29 12:13:53;;;;;;;;;;;;;;;7.28;59.98;99148.41;4979321;28;19986;-77
2023/01/29 12:16:20;;;;;;;;;;;;;;;7.27;59.26;99144.97;5013242;28;20018;-76
2023/01/29 12:18:48;;;;;;;;;;;;;;;7.28;59.85;99138.84;4996011;28;20471;-77
2023/01/29 12:21:14;;;;;;;;;;;;;;;7.28;59.76;99138.03;4979048;28;20399;-75
2023/01/29 12:23:58;;;;;;;;;;;;;;;7.38;63.06;99134.78;4972420;28;19922;-75
2023/01/29 12:26:30;;;;;;;;;;;;;;;7.38;62.20;99139.16;4994027;28;19926;-89
2023/01/29 12:29:14;;;;;;;;;;;;;;;7.36;61.61;99143.63;4959803;28;19917;-78
2023/01/29 12:31:39;;;;;;;;;;;;;;;7.35;61.21;99131.53;4984164;28;20396;-80
2023/01/29 12:34:07;;;;;;;;;;;;;;;7.37;60.49;99135.75;5012565;28;19929;-80
2023/01/29 12:36:33;;;;;;;;;;;;;;;7.38;60.45;99132.19;5012647;28;19928;-75
2023/01/29 12:38:58;;;;;;;;;;;;;;;7.42;60.42;99127.69;5008324;28;19917;-74
2023/01/29 12:41:35;;;;;;;;;;;;;;;7.48;60.07;99127.34;4978684;28;20024;-75
2023/01/29 12:44:02;;;;;;;;;;;;;;;7.50;59.32;99125.47;4975468;28;19921;-77
2023/01/29 12:46:29;;;;;;;;;;;;;;;7.60;66.28;99131.81;4976082;28;19917;-76
2023/01/29 12:48:55;;;;;;;;;;;;;;;7.96;73.03;99119.38;4976451;28;19914;-75
2023/01/29 12:51:24;;;;;;;;;;;;;;;8.08;70.42;99123.84;4976470;28;19917;-75
2023/01/29 12:53:53;;;;;;;;;;;;;;;8.09;67.61;99127.25;4960119;28;19937;-77
2023/01/29 12:56:25;;;;;;;;;;;;;;;8.08;65.84;99123.84;4959075;28;19941;-75
2023/01/29 12:58:51;;;;;;;;;;;;;;;8.10;64.87;99126.34;4975373;28;20381;-75
2023/01/29 13:01:26;;;;;;;;;;;;;;;8.07;63.88;99129.13;4975422;28;19918;-75
2023/01/29 13:03:56;;;;;;;;;;;;;;;8.04;62.73;99127.53;4976543;28;19924;-74
2023/01/29 13:06:35;;;;;;;;;;;;;;;8.03;62.74;99138.03;4959771;28;20294;-75
2023/01/29 13:09:04;;;;;;;;;;;;;;;8.00;62.14;99135.63;4960215;28;20322;-76
2023/01/29 13:11:39;;;;;;;;;;;;;;;8.01;61.70;99127.72;4960110;28;20016;-75
2023/01/29 13:14:20;;;;;;;;;;;;;;;8.01;61.33;99129.50;4976142;28;19956;-76
2023/01/29 13:16:46;;;;;;;;;;;;;;;8.04;61.09;99119.75;4994000;28;19980;-74
2023/01/29 13:19:18;;;;;;;;;;;;;;;8.07;60.61;99127.34;4993276;28;19972;-75
2023/01/29 13:21:43;;;;;;;;;;;;;;;8.09;60.11;99129.88;4993594;28;19925;-76
2023/01/29 13:24:13;;;;;;;;;;;;;;;8.11;59.41;99125.41;4959628;28;19918;-76
2023/01/29 13:26:38;;;;;;;;;;;;;;;8.15;59.38;99121.69;4975302;28;19926;-75
2023/01/29 13:29:04;;;;;;;;;;;;;;;8.15;59.27;99125.13;4976117;28;19926;-74